Time;durP1;ratioP1;P1;durP2;ratioP2;P2;SDS_P1;SDS_P2;PMS_P1;PMS_P2;Temp;Humidity;BMP_temperature;BMP_pressure;BME280_temperature;BME280_humidity;BME280_pressure;Samples;Min_cycle;Max_cycle;Signal;HPM_P1;HPM_P2
2021/06/10 09:02:00;;;;;;;8.35;1.88;;;25.10;55.90;;;;;;4004278;24;20058;-77
2021/06/10 09:04:11;;;;;;;10.25;1.90;;;25.20;57.30;;;;;;3938900;30;20066;-75
2021/06/10 09:06:20;;;;;;;12.23;2.60;;;25.50;56.40;;;;;;3975251;29;20047;-75
2021/06/10 09:08:23;;;;;;;14.57;1.90;;;25.40;55.10;;;;;;3979407;29;20059;-79
2021/06/10 09:10:29;;;;;;;10.60;2.25;;;25.60;56.50;;;;;;3983948;29;20399;-74
2021/06/10 09:12:54;;;;;;;6.53;1.50;;;25.70;56.00;;;;;;3963450;30;20052;-79
2021/06/10 09:15:40;;;;;;;10.80;2.00;;;25.70;56.60;;;;;;3978126;29;20054;-78
2021/06/10 09:18:03;;;;;;;15.35;1.83;;;25.80;56.70;;;;;;3961822;30;20066;-78
2021/06/10 09:20:37;;;;;;;18.58;2.63;;;26.00;56.00;;;;;;3964475;29;20050;-78
2021/06/10 09:22:55;;;;;;;13.63;2.65;;;26.20;56.40;;;;;;3942133;30;20499;-79
2021/06/10 09:25:50;;;;;;;15.20;2.05;;;26.30;55.80;;;;;;3962204;30;20055;-78
2021/06/10 09:28:34;;;;;;;10.98;2.53;;;26.30;55.40;;;;;;3956597;29;20047;-78
2021/06/10 09:31:06;;;;;;;18.58;2.65;;;26.10;55.80;;;;;;3956634;30;20067;-79
2021/06/10 09:34:20;;;;;;;15.05;2.33;;;25.90;55.40;;;;;;3887638;30;20053;-79
2021/06/10 09:36:40;;;;;;;9.10;1.77;;;26.20;56.20;;;;;;3918717;29;20055;-78
2021/06/10 09:39:05;;;;;;;8.05;2.13;;;26.20;56.80;;;;;;3942845;30;20074;-75
2021/06/10 09:41:16;;;;;;;5.95;1.95;;;26.10;55.60;;;;;;3956890;29;20051;-77
2021/06/10 09:43:40;;;;;;;13.23;1.70;;;26.50;56.40;;;;;;3961741;29;20055;-78
2021/06/10 09:45:49;;;;;;;;;;;26.70;57.50;;;;;;3976600;29;20145;-77
2021/06/10 09:47:58;;;;;;;6.97;1.92;;;26.90;56.90;;;;;;3960664;29;19929;-77
2021/06/10 09:50:29;;;;;;;5.82;1.83;;;26.90;54.50;;;;;;3981271;29;20107;-79
2021/06/10 09:52:50;;;;;;;8.82;1.60;;;26.90;55.20;;;;;;3963646;29;20050;-77
2021/06/10 09:55:02;;;;;;;9.75;2.05;;;27.00;55.60;;;;;;3966435;29;20046;-78
2021/06/10 09:57:18;;;;;;;10.90;2.17;;;27.10;55.60;;;;;;3976342;29;20138;-77
2021/06/10 09:59:43;;;;;;;7.80;1.77;;;27.20;54.30;;;;;;3980374;29;20063;-76
2021/06/10 10:02:10;;;;;;;7.50;2.22;;;27.00;55.10;;;;;;3962545;29;20062;-75
2021/06/10 10:04:14;;;;;;;19.90;2.33;;;26.90;54.40;;;;;;3962372;29;20055;-75
2021/06/10 10:06:24;;;;;;;5.60;2.33;;;26.70;54.00;;;;;;3964216;29;20059;-75
2021/06/10 10:08:43;;;;;;;17.20;2.40;;;26.60;54.50;;;;;;3967210;29;20051;-77
2021/06/10 10:10:48;;;;;;;6.18;1.88;;;26.60;54.80;;;;;;3978542;29;20062;-77
2021/06/10 10:12:53;;;;;;;11.48;2.33;;;26.50;55.10;;;;;;3980365;29;20063;-77
2021/06/10 10:15:07;;;;;;;8.05;2.08;;;26.70;55.60;;;;;;3981407;29;20341;-77
2021/06/10 10:17:13;;;;;;;7.45;1.98;;;26.80;55.90;;;;;;3953506;30;20055;-74
2021/06/10 10:19:17;;;;;;;6.75;2.05;;;26.70;55.90;;;;;;3964004;29;20504;-77
2021/06/10 10:21:28;;;;;;;9.93;2.58;;;26.90;55.80;;;;;;3965741;30;20088;-75
2021/06/10 10:23:38;;;;;;;8.35;2.30;;;26.70;55.10;;;;;;3966817;30;20082;-76
2021/06/10 10:25:45;;;;;;;15.38;2.45;;;26.80;55.80;;;;;;3948824;30;20059;-77
2021/06/10 10:28:06;;;;;;;7.15;2.83;;;26.50;55.40;;;;;;3931245;30;20055;-77
2021/06/10 10:30:11;;;;;;;7.72;2.42;;;26.60;55.30;;;;;;3967421;29;20069;-76
2021/06/10 10:32:22;;;;;;;12.18;2.22;;;26.80;54.90;;;;;;3962299;29;20059;-76
2021/06/10 10:34:33;;;;;;;19.90;2.55;;;26.80;55.20;;;;;;3984486;29;20070;-76
2021/06/10 10:36:56;;;;;;;;;;;;;;;;;;;;;
2021/06/10 10:39:07;;;;;;;5.15;2.33;;;26.80;55.40;;;;;;3988063;29;20053;-77
2021/06/10 10:41:21;;;;;;;12.50;2.10;;;26.70;54.60;;;;;;3993313;29;20099;-76
2021/06/10 10:43:26;;;;;;;8.05;1.98;;;26.80;56.00;;;;;;3980368;29;20059;-78
2021/06/10 10:45:29;;;;;;;9.48;3.00;;;27.10;56.20;;;;;;3963024;29;20063;-80
2021/06/10 10:47:43;;;;;;;11.82;2.22;;;27.10;55.50;;;;;;3983825;29;20126;-77
2021/06/10 10:50:01;;;;;;;11.68;2.58;;;27.20;54.80;;;;;;3999597;29;20065;-78
2021/06/10 10:52:35;;;;;;;14.80;2.95;;;27.20;54.90;;;;;;3979087;29;20071;-77
2021/06/10 10:55:31;;;;;;;8.45;2.38;;;26.90;53.80;;;;;;3913068;30;20064;-78
2021/06/10 10:58:01;;;;;;;9.03;2.40;;;27.00;54.50;;;;;;3979387;29;20152;-77
2021/06/10 11:00:20;;;;;;;6.88;2.30;;;27.10;54.30;;;;;;3974943;29;20079;-75
2021/06/10 11:02:30;;;;;;;14.52;2.50;;;27.10;55.50;;;;;;3974079;29;20082;-75
2021/06/10 11:04:52;;;;;;;11.60;2.63;;;27.40;56.50;;;;;;3984562;29;20643;-75
2021/06/10 11:06:56;;;;;;;14.50;2.55;;;27.50;55.10;;;;;;3983829;29;20055;-75
2021/06/10 11:09:11;;;;;;;16.63;2.72;;;27.60;54.50;;;;;;3983554;29;20061;-76
2021/06/10 11:11:14;;;;;;;12.20;2.40;;;27.40;53.90;;;;;;3973555;30;20064;-76
2021/06/10 11:13:28;;;;;;;13.98;2.78;;;27.60;55.00;;;;;;3982856;29;20051;-76
2021/06/10 11:15:48;;;;;;;11.73;2.75;;;27.70;53.90;;;;;;3966722;30;20096;-77
2021/06/10 11:18:02;;;;;;;9.20;3.13;;;27.70;54.80;;;;;;3966612;29;20060;-76
2021/06/10 11:20:46;;;;;;;12.32;3.53;;;27.80;53.90;;;;;;3973431;29;20047;-78
2021/06/10 11:22:52;;;;;;;15.32;2.67;;;27.80;54.90;;;;;;3965558;29;20153;-76
2021/06/10 11:25:26;;;;;;;14.73;3.42;;;27.90;54.30;;;;;;3977833;29;20050;-78
2021/06/10 11:28:08;;;;;;;12.55;2.60;;;27.90;54.80;;;;;;3980780;29;20068;-79
2021/06/10 11:30:31;;;;;;;12.43;4.88;;;28.00;54.30;;;;;;3995715;29;20135;-74
2021/06/10 11:32:59;;;;;;;12.98;2.92;;;28.10;55.00;;;;;;3982299;29;20054;-75
2021/06/10 11:35:10;;;;;;;7.38;2.70;;;28.10;54.40;;;;;;3980660;29;20047;-77
2021/06/10 11:37:27;;;;;;;9.73;2.60;;;28.20;54.30;;;;;;3963280;29;20103;-75
2021/06/10 11:39:34;;;;;;;9.10;2.63;;;28.20;54.20;;;;;;3984602;29;20122;-77
2021/06/10 11:41:42;;;;;;;15.80;3.03;;;28.30;56.10;;;;;;3950630;29;20051;-75
2021/06/10 11:44:05;;;;;;;10.35;2.72;;;28.40;54.90;;;;;;3959053;30;20048;-76
2021/06/10 11:46:10;;;;;;;9.60;2.70;;;28.40;54.10;;;;;;3982230;29;20056;-76
2021/06/10 11:48:34;;;;;;;8.63;2.33;;;28.50;55.80;;;;;;3962940;29;20115;-78
2021/06/10 11:50:47;;;;;;;10.55;2.97;;;28.40;55.30;;;;;;3979200;29;20054;-77
2021/06/10 11:52:56;;;;;;;15.68;2.58;;;28.40;54.70;;;;;;3963734;29;20089;-75
2021/06/10 11:55:26;;;;;;;11.13;2.80;;;28.50;55.30;;;;;;3979136;29;20067;-78
2021/06/10 11:57:33;;;;;;;7.07;2.75;;;28.50;55.50;;;;;;3986869;29;20063;-77
2021/06/10 11:59:39;;;;;;;10.90;3.20;;;28.40;55.80;;;;;;3983147;29;20054;-79
2021/06/10 12:04:19;;;;;;;;;;;;;;;;;;;;;
2021/06/10 12:06:46;;;;;;;9.95;2.88;;;28.40;57.00;;;;;;4256167;27;20131;-76
2021/06/10 12:08:49;;;;;;;10.05;3.30;;;28.50;56.00;;;;;;4235603;28;20043;-77
2021/06/10 12:11:03;;;;;;;15.00;2.67;;;28.40;56.20;;;;;;4276167;27;20058;-75
2021/06/10 12:13:13;;;;;;;7.97;2.95;;;28.50;56.50;;;;;;4261441;27;20047;-78
2021/06/10 12:16:18;;;;;;;13.52;3.35;;;28.80;56.70;;;;;;4266495;27;20106;-76
2021/06/10 12:18:46;;;;;;;10.40;3.13;;;28.40;56.90;;;;;;4255207;22;20131;-76
2021/06/10 12:21:37;;;;;;;8.50;2.70;;;28.30;57.20;;;;;;4231652;22;20058;-80
2021/06/10 12:23:42;;;;;;;8.90;2.65;;;28.30;56.70;;;;;;4215165;28;20054;-75
2021/06/10 12:25:50;;;;;;;9.70;2.80;;;28.20;57.70;;;;;;4200185;28;20505;-74
2021/06/10 12:28:03;;;;;;;7.20;2.90;;;28.20;57.80;;;;;;4210344;28;20067;-77
2021/06/10 12:30:21;;;;;;;8.15;2.47;;;28.20;58.10;;;;;;4208727;28;20064;-75
2021/06/10 12:32:29;;;;;;;11.73;2.50;;;28.20;58.90;;;;;;4201882;28;20398;-75
2021/06/10 12:34:32;;;;;;;10.23;2.55;;;28.40;59.00;;;;;;4210016;28;20056;-78
2021/06/10 12:36:39;;;;;;;7.60;2.40;;;28.30;59.10;;;;;;4212826;28;21475;-76
2021/06/10 12:38:45;;;;;;;6.47;2.85;;;28.30;59.70;;;;;;4209153;28;20328;-76
2021/06/10 12:40:49;;;;;;;8.38;2.75;;;28.30;59.30;;;;;;4209905;28;20052;-76
2021/06/10 12:43:21;;;;;;;9.33;2.63;;;28.30;58.90;;;;;;4196617;28;20041;-79
2021/06/10 12:46:09;;;;;;;8.80;2.53;;;28.30;59.30;;;;;;4192412;28;20108;-77
2021/06/10 12:48:26;;;;;;;6.35;2.78;;;28.60;59.80;;;;;;4210618;28;20222;-76
2021/06/10 12:50:35;;;;;;;5.63;2.30;;;28.80;59.40;;;;;;4213123;28;20052;-80
2021/06/10 12:52:55;;;;;;;9.30;2.33;;;28.70;59.60;;;;;;4217469;28;20029;-77
2021/06/10 12:55:01;;;;;;;6.50;2.22;;;28.70;61.20;;;;;;4224878;28;20112;-78
2021/06/10 12:57:18;;;;;;;9.45;2.47;;;28.60;61.60;;;;;;4213274;28;20101;-77
2021/06/10 12:59:36;;;;;;;8.73;2.30;;;28.60;62.10;;;;;;4207101;28;20064;-74
2021/06/10 13:02:02;;;;;;;12.13;2.53;;;28.40;62.40;;;;;;4217206;28;20044;-77
2021/06/10 13:04:05;;;;;;;5.85;2.45;;;28.50;61.90;;;;;;4211512;28;20075;-78
2021/06/10 13:08:47;;;;;;;4.85;2.42;;;28.50;62.60;;;;;;4275586;22;20098;-78
2021/06/10 13:13:42;;;;;;;12.75;2.75;;;28.50;62.20;;;;;;4215065;28;20052;-73
2021/06/10 13:15:45;;;;;;;4.68;2.22;;;28.70;62.70;;;;;;4201761;28;20040;-74
2021/06/10 13:17:57;;;;;;;11.18;2.55;;;28.90;62.40;;;;;;4205610;28;20547;-78
2021/06/10 13:20:03;;;;;;;4.68;2.08;;;29.10;62.60;;;;;;4205451;28;20056;-74
2021/06/10 13:22:21;;;;;;;5.07;2.63;;;29.40;63.40;;;;;;4183063;28;20123;-77
2021/06/10 13:24:44;;;;;;;11.27;3.03;;;29.40;60.40;;;;;;4196014;28;20114;-77
2021/06/10 13:26:51;;;;;;;10.18;2.20;;;29.30;62.00;;;;;;4193496;28;20467;-75
2021/06/10 13:29:15;;;;;;;4.80;2.38;;;29.10;62.10;;;;;;4193457;28;20092;-79
2021/06/10 13:31:26;;;;;;;8.73;2.53;;;28.80;62.80;;;;;;4188667;28;20083;-78
2021/06/10 13:33:32;;;;;;;7.35;2.78;;;29.10;63.10;;;;;;4197486;28;20056;-73
2021/06/10 13:35:40;;;;;;;5.22;2.63;;;29.00;61.80;;;;;;4202125;28;20287;-76
2021/06/10 13:37:48;;;;;;;6.72;2.20;;;29.00;61.60;;;;;;4207088;28;20052;-77
2021/06/10 13:40:14;;;;;;;3.17;2.30;;;29.20;61.90;;;;;;4216202;28;20058;-78
2021/06/10 13:42:22;;;;;;;3.95;2.33;;;29.30;62.00;;;;;;4201399;28;20048;-77
2021/06/10 13:45:29;;;;;;;4.90;2.05;;;29.30;62.40;;;;;;4202693;28;20056;-79
2021/06/10 13:47:39;;;;;;;7.43;2.20;;;29.50;61.40;;;;;;4185451;28;20065;-75
2021/06/10 13:50:02;;;;;;;6.20;2.30;;;29.60;61.50;;;;;;4203795;28;20066;-76
2021/06/10 13:52:10;;;;;;;5.07;2.03;;;29.60;61.10;;;;;;4181803;28;20055;-76
2021/06/10 13:57:50;;;;;;;5.65;2.42;;;29.40;60.80;;;;;;4201161;28;20060;-78
2021/06/10 14:00:22;;;;;;;6.22;2.47;;;29.30;61.70;;;;;;4207299;28;20569;-78
2021/06/10 14:02:53;;;;;;;14.10;2.83;;;29.10;61.70;;;;;;4169944;28;20172;-76
2021/06/10 14:05:46;;;;;;;10.13;2.38;;;28.90;62.90;;;;;;4032721;29;20075;-78
2021/06/10 14:08:04;;;;;;;7.88;2.63;;;29.10;63.20;;;;;;4113038;28;20039;-77
2021/06/10 14:10:11;;;;;;;5.43;2.22;;;29.10;63.40;;;;;;4160716;28;20041;-77
2021/06/10 14:12:23;;;;;;;6.60;2.42;;;29.20;63.30;;;;;;4144759;28;20065;-78
2021/06/10 14:14:34;;;;;;;6.00;2.50;;;29.20;62.80;;;;;;4189511;28;20057;-78
2021/06/10 14:16:46;;;;;;;4.90;2.33;;;29.30;61.80;;;;;;4159469;28;20049;-78
2021/06/10 14:18:56;;;;;;;8.02;2.40;;;29.50;62.80;;;;;;4160470;28;20045;-77
2021/06/10 14:21:02;;;;;;;4.35;2.60;;;29.70;62.90;;;;;;4159811;28;20049;-78
2021/06/10 14:24:10;;;;;;;14.05;2.47;;;29.70;62.60;;;;;;4144100;28;20521;-78
2021/06/10 14:26:15;;;;;;;10.25;2.13;;;29.80;62.40;;;;;;4158070;28;20064;-78
2021/06/10 14:28:22;;;;;;;4.05;2.30;;;29.40;62.60;;;;;;4151586;28;20057;-77
2021/06/10 14:30:34;;;;;;;4.22;2.03;;;29.30;64.50;;;;;;4161768;28;20054;-76
2021/06/10 14:32:38;;;;;;;4.72;2.30;;;29.50;64.30;;;;;;4149824;28;20418;-78
2021/06/10 14:34:43;;;;;;;2.40;2.10;;;29.10;64.30;;;;;;4160492;28;20066;-81
2021/06/10 14:36:46;;;;;;;;;;;29.20;64.60;;;;;;4167176;28;20059;-76
2021/06/10 14:38:51;;;;;;;4.70;1.90;;;29.20;65.00;;;;;;4180127;28;19921;-75
2021/06/10 14:40:55;;;;;;;3.58;2.33;;;29.20;64.50;;;;;;4159581;28;20119;-77
2021/06/10 14:42:58;;;;;;;1.90;1.67;;;29.20;64.50;;;;;;4162638;28;20065;-75
2021/06/10 14:45:01;;;;;;;8.80;2.10;;;29.30;64.60;;;;;;4160718;28;20498;-78
2021/06/10 14:47:15;;;;;;;4.70;2.47;;;29.30;65.10;;;;;;4151819;28;20065;-76
2021/06/10 14:49:24;;;;;;;6.05;1.98;;;28.90;65.30;;;;;;4142914;28;20148;-77
2021/06/10 14:51:31;;;;;;;3.15;2.38;;;28.80;65.70;;;;;;4156654;28;20045;-77
2021/06/10 14:53:41;;;;;;;4.05;2.47;;;28.60;65.70;;;;;;4147577;28;20053;-75
2021/06/10 14:55:44;;;;;;;7.80;2.03;;;28.50;66.00;;;;;;4162661;28;20053;-74
2021/06/10 14:57:50;;;;;;;4.18;2.40;;;28.70;66.00;;;;;;4158976;28;20056;-76
2021/06/10 14:59:54;;;;;;;6.75;2.20;;;28.70;66.10;;;;;;4155537;28;20534;-73
2021/06/10 15:01:57;;;;;;;8.52;2.42;;;28.70;65.70;;;;;;4151108;28;20049;-76
2021/06/10 15:04:02;;;;;;;4.13;2.28;;;28.70;65.50;;;;;;4153348;28;20053;-76
2021/06/10 15:06:05;;;;;;;;;;;28.70;66.30;;;;;;4147838;28;20557;-77
2021/06/10 15:08:08;;;;;;;3.60;2.28;;;28.90;65.70;;;;;;4153043;28;19922;-76
2021/06/10 15:10:12;;;;;;;4.80;2.20;;;28.80;65.70;;;;;;4152078;28;20050;-75
2021/06/10 15:12:15;;;;;;;10.25;2.58;;;29.10;65.80;;;;;;4153525;28;20053;-73
2021/06/10 15:14:18;;;;;;;5.82;2.20;;;28.90;65.20;;;;;;4172541;28;20608;-76
2021/06/10 15:16:21;;;;;;;9.18;2.60;;;28.90;65.20;;;;;;4153896;28;20069;-76
2021/06/10 15:18:25;;;;;;;9.75;3.50;;;28.70;65.90;;;;;;4146638;28;20058;-77
2021/06/10 15:20:32;;;;;;;5.30;2.25;;;28.60;64.80;;;;;;4156541;28;20046;-77
2021/06/10 15:22:38;;;;;;;6.25;2.10;;;28.50;65.10;;;;;;4152836;28;20060;-75
2021/06/10 15:24:45;;;;;;;2.97;1.90;;;28.30;65.70;;;;;;4151241;28;20115;-78
2021/06/10 15:26:50;;;;;;;5.20;2.05;;;28.30;66.30;;;;;;4157833;28;20081;-76
2021/06/10 15:28:59;;;;;;;3.70;2.47;;;28.40;66.90;;;;;;4152169;28;20060;-73
2021/06/10 15:31:06;;;;;;;6.63;2.30;;;28.30;67.10;;;;;;4153185;28;20056;-79
2021/06/10 15:33:11;;;;;;;3.70;2.00;;;28.50;67.20;;;;;;4156752;28;20141;-73
2021/06/10 15:35:24;;;;;;;5.18;2.22;;;28.40;66.20;;;;;;4151434;28;20061;-75
2021/06/10 15:37:32;;;;;;;5.20;2.22;;;28.30;65.80;;;;;;4164593;28;20049;-76
2021/06/10 15:39:39;;;;;;;4.45;2.35;;;28.50;65.40;;;;;;4167504;28;20049;-74
2021/06/10 15:41:50;;;;;;;4.90;2.33;;;28.60;65.90;;;;;;4157482;28;20049;-75
2021/06/10 15:43:57;;;;;;;5.93;2.30;;;28.70;65.90;;;;;;4151640;28;20056;-76
2021/06/10 15:46:22;;;;;;;6.38;2.50;;;28.70;64.80;;;;;;4179250;28;20045;-75
2021/06/10 15:48:54;;;;;;;4.60;2.70;;;28.80;63.90;;;;;;4165114;28;20052;-78
2021/06/10 15:51:10;;;;;;;7.07;2.10;;;28.90;64.20;;;;;;4161126;28;20061;-77
2021/06/10 15:53:20;;;;;;;4.15;2.05;;;28.80;63.30;;;;;;4135343;28;20043;-77
2021/06/10 15:55:31;;;;;;;9.52;5.35;;;28.70;63.30;;;;;;4164419;28;20049;-75
2021/06/10 15:57:42;;;;;;;2.33;2.10;;;28.50;63.10;;;;;;4162625;28;20056;-75
2021/06/10 15:59:52;;;;;;;6.32;1.92;;;28.40;63.10;;;;;;4162976;28;20477;-75
2021/06/10 16:02:00;;;;;;;5.82;2.30;;;28.30;63.50;;;;;;4146693;28;20096;-74
2021/06/10 16:04:06;;;;;;;3.58;2.40;;;28.60;64.00;;;;;;4146994;28;20400;-75
2021/06/10 16:06:22;;;;;;;5.55;2.08;;;28.40;63.80;;;;;;4142218;28;20137;-75
2021/06/10 16:08:33;;;;;;;2.90;2.13;;;28.60;63.60;;;;;;4164735;28;20053;-73
2021/06/10 16:10:46;;;;;;;8.05;2.58;;;28.70;62.70;;;;;;4177286;28;20124;-74
2021/06/10 16:12:50;;;;;;;3.35;2.13;;;28.70;62.50;;;;;;4164310;28;20409;-73
2021/06/10 16:14:55;;;;;;;5.63;2.22;;;28.80;63.20;;;;;;4166156;28;20498;-77
2021/06/10 16:17:02;;;;;;;6.70;2.88;;;28.80;62.90;;;;;;4163291;28;20053;-74
2021/06/10 16:19:07;;;;;;;12.70;6.68;;;29.00;63.10;;;;;;4162504;28;20057;-75
2021/06/10 16:21:11;;;;;;;5.68;3.08;;;29.10;63.00;;;;;;4169778;28;20056;-76
2021/06/10 16:23:16;;;;;;;7.43;2.33;;;29.00;62.70;;;;;;4143739;28;20066;-75
2021/06/10 16:25:21;;;;;;;2.70;2.22;;;29.00;62.70;;;;;;4174629;28;20053;-74
2021/06/10 16:27:26;;;;;;;5.55;2.88;;;29.10;62.00;;;;;;4178464;28;20092;-77
2021/06/10 16:29:32;;;;;;;3.95;2.33;;;29.00;62.90;;;;;;4168698;28;20041;-74
2021/06/10 16:31:41;;;;;;;6.28;3.30;;;29.10;61.80;;;;;;4169400;28;20278;-74
2021/06/10 16:33:50;;;;;;;15.90;8.30;;;29.20;61.80;;;;;;4171100;28;20110;-77
2021/06/10 16:35:57;;;;;;;7.35;3.70;;;29.10;61.70;;;;;;4185516;28;20057;-75
2021/06/10 16:38:01;;;;;;;5.80;2.97;;;29.10;60.70;;;;;;4167289;28;20069;-76
2021/06/10 16:40:10;;;;;;;4.68;2.10;;;29.00;60.30;;;;;;4167177;28;20047;-76
2021/06/10 16:42:27;;;;;;;25.20;16.50;;;28.90;61.00;;;;;;4166096;28;20049;-76
2021/06/10 16:44:32;;;;;;;23.80;14.93;;;28.90;61.10;;;;;;4161612;28;20041;-76
2021/06/10 16:46:37;;;;;;;10.50;2.63;;;28.90;61.10;;;;;;4172577;28;20131;-76
2021/06/10 16:48:42;;;;;;;5.03;1.92;;;29.00;61.40;;;;;;4169688;28;20053;-76
2021/06/10 16:50:47;;;;;;;7.55;3.33;;;28.90;60.70;;;;;;4175405;28;20049;-76
2021/06/10 16:52:55;;;;;;;13.73;8.98;;;28.90;60.60;;;;;;4172537;28;20057;-74
2021/06/10 16:55:08;;;;;;;3.45;2.13;;;28.90;60.70;;;;;;4166425;28;20508;-75
2021/06/10 16:57:15;;;;;;;6.57;2.03;;;28.90;60.50;;;;;;4167778;28;20045;-75
2021/06/10 16:59:25;;;;;;;3.13;2.10;;;28.80;59.90;;;;;;4167733;28;20554;-75
2021/06/10 17:02:26;;;;;;;4.75;1.90;;;28.80;60.20;;;;;;4165094;28;20426;-74
2021/06/10 17:04:04;;;;;;;5.47;1.50;;;28.80;60.90;;;;;;4165596;28;20061;-74
2021/06/10 17:06:10;;;;;;;4.32;1.75;;;28.90;61.10;;;;;;4164222;28;20057;-76
2021/06/10 17:08:15;;;;;;;4.45;1.55;;;28.90;60.50;;;;;;4160994;28;20057;-74
2021/06/10 17:10:20;;;;;;;2.47;1.55;;;28.80;61.10;;;;;;4166999;28;20049;-75
2021/06/10 17:12:31;;;;;;;2.53;1.55;;;28.70;60.60;;;;;;4182426;28;20436;-76
2021/06/10 17:14:39;;;;;;;7.25;2.10;;;28.70;61.10;;;;;;4171253;28;20052;-74
2021/06/10 17:16:48;;;;;;;3.90;1.90;;;28.90;61.60;;;;;;4167829;28;20050;-74
2021/06/10 17:18:54;;;;;;;4.90;1.40;;;28.90;60.70;;;;;;4171844;28;20053;-74
2021/06/10 17:21:01;;;;;;;6.35;1.63;;;28.80;61.00;;;;;;4171387;28;20052;-74
2021/06/10 17:23:09;;;;;;;5.32;1.60;;;28.80;61.40;;;;;;4171023;28;20045;-73
2021/06/10 17:25:17;;;;;;;5.68;1.50;;;28.80;60.60;;;;;;4177093;28;20068;-74
2021/06/10 17:27:30;;;;;;;4.47;1.60;;;28.70;61.70;;;;;;4178457;28;20103;-73
2021/06/10 17:29:38;;;;;;;3.55;1.60;;;28.60;60.70;;;;;;4179827;28;20045;-74
2021/06/10 17:31:47;;;;;;;2.38;1.45;;;28.70;61.50;;;;;;4190972;28;20513;-78
2021/06/10 17:33:55;;;;;;;3.25;1.63;;;28.50;61.70;;;;;;4182513;28;20061;-74
2021/06/10 17:36:06;;;;;;;4.63;1.52;;;28.70;61.50;;;;;;4179071;28;20041;-75
2021/06/10 17:38:16;;;;;;;5.07;1.33;;;28.70;61.80;;;;;;4158311;28;20458;-75
2021/06/10 17:40:21;;;;;;;3.83;1.40;;;28.50;61.40;;;;;;4150831;28;20049;-74
2021/06/10 17:42:33;;;;;;;1.55;1.40;;;28.30;62.30;;;;;;4148730;28;20384;-75
2021/06/10 17:44:42;;;;;;;3.28;1.48;;;28.20;62.40;;;;;;4148748;28;20216;-75
2021/06/10 17:46:49;;;;;;;5.97;1.38;;;28.30;62.60;;;;;;4149681;28;20054;-74
2021/06/10 17:48:56;;;;;;;5.18;1.60;;;28.20;62.30;;;;;;4132182;28;20055;-74
2021/06/10 17:51:04;;;;;;;5.40;1.60;;;28.20;61.90;;;;;;4150092;28;20436;-74
2021/06/10 17:53:12;;;;;;;8.38;2.08;;;28.20;62.20;;;;;;4153977;28;20101;-73
2021/06/10 17:55:20;;;;;;;2.78;1.60;;;28.20;62.10;;;;;;4169093;28;20057;-76
2021/06/10 17:57:29;;;;;;;5.63;1.40;;;28.30;62.20;;;;;;4153560;28;20083;-76
2021/06/10 17:59:33;;;;;;;4.75;2.03;;;28.40;62.30;;;;;;4151284;28;20533;-74
2021/06/10 18:01:40;;;;;;;5.05;1.85;;;28.30;62.50;;;;;;4150972;28;20069;-74
2021/06/10 18:03:48;;;;;;;3.70;1.40;;;28.30;62.60;;;;;;4149018;28;20052;-74
2021/06/10 18:05:53;;;;;;;6.57;1.60;;;28.30;62.40;;;;;;4156764;28;20057;-74
2021/06/10 18:07:59;;;;;;;3.42;1.50;;;28.20;63.20;;;;;;4159696;28;20049;-74
2021/06/10 18:10:08;;;;;;;1.52;1.40;;;28.20;63.00;;;;;;4180544;28;20064;-74
2021/06/10 18:12:13;;;;;;;6.25;1.67;;;28.20;63.00;;;;;;4164201;28;20045;-74
2021/06/10 18:14:19;;;;;;;1.77;1.30;;;28.30;62.90;;;;;;4153641;28;20132;-75
2021/06/10 18:16:29;;;;;;;2.50;1.33;;;28.30;62.90;;;;;;4148444;28;20057;-74
2021/06/10 18:18:35;;;;;;;2.65;1.50;;;28.30;62.50;;;;;;4148755;28;20062;-73
2021/06/10 18:20:40;;;;;;;4.30;1.25;;;28.10;62.80;;;;;;4148480;28;20112;-74
2021/06/10 18:22:48;;;;;;;3.63;1.45;;;28.00;63.20;;;;;;4146245;28;20441;-75
2021/06/10 18:24:54;;;;;;;1.48;0.98;;;27.90;63.60;;;;;;4163765;28;20060;-74
2021/06/10 18:27:03;;;;;;;3.47;1.40;;;27.90;63.80;;;;;;4162937;28;20104;-75
2021/06/10 18:29:12;;;;;;;5.47;1.60;;;27.80;63.80;;;;;;4165114;28;20053;-74
2021/06/10 18:31:18;;;;;;;1.80;1.50;;;27.90;64.10;;;;;;4173660;28;20163;-74
2021/06/10 18:33:32;;;;;;;4.88;1.60;;;27.80;65.50;;;;;;4167228;28;20080;-75
2021/06/10 18:35:42;;;;;;;4.07;1.48;;;27.80;65.90;;;;;;4163490;28;20057;-74
2021/06/10 18:37:47;;;;;;;3.92;1.50;;;27.70;66.60;;;;;;4147266;28;20520;-75
2021/06/10 18:39:51;;;;;;;7.03;1.90;;;27.50;67.30;;;;;;4148473;28;20542;-76
2021/06/10 18:42:00;;;;;;;1.90;1.60;;;27.70;67.70;;;;;;4163594;28;20533;-73
2021/06/10 18:44:07;;;;;;;6.00;1.50;;;27.60;68.30;;;;;;4148385;28;20057;-75
2021/06/10 18:46:14;;;;;;;2.13;1.75;;;27.60;68.40;;;;;;4150284;28;20056;-76
2021/06/10 18:48:24;;;;;;;3.47;1.70;;;27.60;69.00;;;;;;4133169;28;20511;-76
2021/06/10 18:50:33;;;;;;;4.57;1.60;;;27.50;68.90;;;;;;4155496;28;20101;-75
2021/06/10 18:52:40;;;;;;;2.38;1.60;;;27.40;69.20;;;;;;4158750;28;20064;-75
2021/06/10 18:54:46;;;;;;;7.57;1.88;;;27.20;69.70;;;;;;4162678;28;20054;-75
2021/06/10 18:56:54;;;;;;;4.40;1.23;;;27.30;70.00;;;;;;4174999;28;20048;-77
2021/06/10 18:59:08;;;;;;;3.40;1.73;;;27.10;70.80;;;;;;4196931;28;20045;-79
2021/06/10 19:01:14;;;;;;;3.17;1.60;;;27.20;71.40;;;;;;4185914;28;20061;-76
2021/06/10 19:03:39;;;;;;;3.13;1.50;;;27.20;71.80;;;;;;4168030;28;20049;-76
2021/06/10 19:05:58;;;;;;;4.25;1.30;;;27.20;72.10;;;;;;4169503;28;20037;-78
2021/06/10 19:08:08;;;;;;;4.28;1.83;;;27.20;72.70;;;;;;4168534;28;20123;-77
2021/06/10 19:10:15;;;;;;;5.30;1.65;;;26.80;73.90;;;;;;4152725;28;20560;-77
2021/06/10 19:12:20;;;;;;;3.47;1.65;;;26.60;74.80;;;;;;4187720;28;20065;-78
2021/06/10 19:14:26;;;;;;;5.07;2.35;;;26.80;75.00;;;;;;4171857;28;20103;-77
2021/06/10 19:16:33;;;;;;;3.40;1.83;;;26.70;76.00;;;;;;4179094;28;20401;-76
2021/06/10 19:18:46;;;;;;;4.68;1.85;;;26.60;77.00;;;;;;4180596;28;20056;-76
2021/06/10 19:20:51;;;;;;;2.85;1.83;;;26.50;77.80;;;;;;4178587;28;20103;-75
2021/06/10 19:22:58;;;;;;;7.53;1.80;;;26.60;78.10;;;;;;4168002;28;20064;-75
2021/06/10 19:25:06;;;;;;;4.25;1.70;;;26.50;78.30;;;;;;4164210;28;20045;-75
2021/06/10 19:27:13;;;;;;;1.95;1.65;;;26.50;78.30;;;;;;4173847;28;20041;-76
2021/06/10 19:29:18;;;;;;;4.30;1.90;;;26.60;78.30;;;;;;4178782;28;20481;-76
2021/06/10 19:31:23;;;;;;;2.08;1.70;;;26.50;78.90;;;;;;4175293;28;20115;-77
2021/06/10 19:33:29;;;;;;;2.95;1.73;;;26.50;78.90;;;;;;4176985;28;20053;-74
2021/06/10 19:35:36;;;;;;;7.47;1.70;;;26.60;78.90;;;;;;4178085;28;20041;-74
2021/06/10 19:37:44;;;;;;;1.80;1.70;;;26.50;79.70;;;;;;4183528;28;20045;-74
2021/06/10 19:39:53;;;;;;;4.18;1.95;;;26.50;80.00;;;;;;4151112;28;20041;-75
2021/06/10 19:42:02;;;;;;;3.97;1.80;;;26.50;80.70;;;;;;4154151;28;20050;-75
2021/06/10 19:44:07;;;;;;;6.22;2.22;;;26.30;81.20;;;;;;4157136;28;20059;-74
2021/06/10 19:46:14;;;;;;;6.18;1.85;;;26.30;81.50;;;;;;4163071;28;20056;-75
2021/06/10 19:48:21;;;;;;;3.20;1.80;;;26.20;81.70;;;;;;4163604;28;20520;-75
2021/06/10 19:50:27;;;;;;;2.67;1.70;;;26.10;81.80;;;;;;4169542;28;20061;-75
2021/06/10 19:52:35;;;;;;;4.30;1.75;;;26.10;81.70;;;;;;4172094;28;20049;-74
2021/06/10 19:54:41;;;;;;;1.88;1.60;;;26.00;81.50;;;;;;4164388;28;20053;-75
2021/06/10 19:56:48;;;;;;;4.50;2.00;;;25.90;81.50;;;;;;4165895;28;20037;-75
2021/06/10 19:58:56;;;;;;;2.05;1.70;;;25.90;81.70;;;;;;4173251;28;20045;-74
2021/06/10 20:01:02;;;;;;;3.15;1.60;;;25.90;81.90;;;;;;4180073;28;20186;-74
2021/06/10 20:03:07;;;;;;;2.97;1.70;;;25.90;81.90;;;;;;4180316;28;20056;-74
2021/06/10 20:05:13;;;;;;;2.10;1.90;;;25.90;82.00;;;;;;4164884;28;20080;-74
2021/06/10 20:07:18;;;;;;;4.15;1.98;;;25.90;82.00;;;;;;4194076;28;20063;-75
2021/06/10 20:09:25;;;;;;;2.53;1.73;;;25.90;82.10;;;;;;4167475;28;20049;-75
2021/06/10 20:11:33;;;;;;;2.20;1.90;;;25.80;82.40;;;;;;4161909;28;20151;-73
2021/06/10 20:13:42;;;;;;;3.67;2.33;;;25.90;82.50;;;;;;4163214;28;20049;-75
2021/06/10 20:15:53;;;;;;;2.38;1.67;;;25.90;81.80;;;;;;4166461;28;20086;-74
2021/06/10 20:17:59;;;;;;;4.40;2.10;;;25.80;82.70;;;;;;4167404;28;20054;-73
2021/06/10 20:20:05;;;;;;;7.78;2.38;;;25.70;82.80;;;;;;4162206;28;20062;-74
2021/06/10 20:22:10;;;;;;;3.33;2.35;;;25.50;83.20;;;;;;4163503;28;20115;-75
2021/06/10 20:24:16;;;;;;;5.20;2.70;;;25.50;83.30;;;;;;4168981;28;20442;-75
2021/06/10 20:26:23;;;;;;;10.00;2.55;;;25.60;83.50;;;;;;4171047;28;20466;-75
2021/06/10 20:31:00;;;;;;;4.97;2.63;;;25.70;83.70;;;;;;4171611;28;20588;-75
2021/06/10 20:33:08;;;;;;;3.20;2.90;;;25.60;83.60;;;;;;4166594;28;20052;-74
2021/06/10 20:35:15;;;;;;;3.22;2.80;;;25.50;83.50;;;;;;4159579;28;21257;-74
2021/06/10 20:37:22;;;;;;;4.47;3.10;;;25.70;83.40;;;;;;4152555;28;20511;-73
2021/06/10 20:39:28;;;;;;;11.32;3.22;;;25.70;83.60;;;;;;4150025;28;20061;-74
2021/06/10 20:41:34;;;;;;;3.90;3.17;;;25.60;83.50;;;;;;4150234;28;20041;-75
2021/06/10 20:43:40;;;;;;;3.35;3.05;;;25.50;84.10;;;;;;4148951;28;20054;-76